Montezuma, New Mexico
Current Conditions -  °F | °C
As of 9:53 AM on Monday 22 Dec 2014 (Local Time) from KLVS Reporting Station
Clear Clear  
Wind Chill: 39°   Ceiling: Unl
Heat Index: 47°   Visibility: 10mi
Dew Point: 22°   Wind: 23mph
Humidity: 37%   Direction: 290°WNW
Pressure: 29.77"   Gusts: 30mph
Location:  35.65°N, 105.28°W
Report Text: KLVS 221653Z AUTO 29020G26KT 10SM CLR 08/M06 A2977 RMK AO2 PK WND 30030/1603 SLP034 T00831056
Loading
Personal Weather Stations






























Interactive Weather Map New forecast layout! Learn more

10-Day Weather Forecast

Advertisements
Track Severe Weather on mobile